sensor_id;sensor_type;location;lat;lon;timestamp;temperature;humidity
66610;DHT22;53468;48.276;14.416;2023-06-14T07:45:12;21.50;99.90
66610;DHT22;53468;48.276;14.416;2023-06-14T07:50:37;21.80;99.90
66610;DHT22;53468;48.276;14.416;2023-06-14T08:37:54;22.60;98.30
66610;DHT22;53468;48.276;14.416;2023-06-14T08:42:56;22.90;96.40
66610;DHT22;53468;48.276;14.416;2023-06-14T08:48:00;22.80;96.00
66610;DHT22;53468;48.276;14.416;2023-06-14T08:53:05;23.10;95.10
66610;DHT22;53468;48.276;14.416;2023-06-14T08:58:11;23.20;95.80
66610;DHT22;53468;48.276;14.416;2023-06-14T09:03:16;23.00;95.20
66610;DHT22;53468;48.276;14.416;2023-06-14T09:08:20;23.10;94.20
66610;DHT22;53468;48.276;14.416;2023-06-14T09:13:23;23.30;94.00
66610;DHT22;53468;48.276;14.416;2023-06-14T09:18:34;23.40;93.90
66610;DHT22;53468;48.276;14.416;2023-06-14T09:23:44;23.50;96.20
66610;DHT22;53468;48.276;14.416;2023-06-14T09:28:47;23.60;96.30
66610;DHT22;53468;48.276;14.416;2023-06-14T09:33:51;23.30;92.60
66610;DHT22;53468;48.276;14.416;2023-06-14T09:38:56;23.50;93.00
66610;DHT22;53468;48.276;14.416;2023-06-14T09:44:01;23.60;94.60
66610;DHT22;53468;48.276;14.416;2023-06-14T09:49:05;23.70;92.40
66610;DHT22;53468;48.276;14.416;2023-06-14T09:54:15;23.90;91.10
66610;DHT22;53468;48.276;14.416;2023-06-14T09:59:21;23.50;90.80
66610;DHT22;53468;48.276;14.416;2023-06-14T10:04:28;23.90;92.10
66610;DHT22;53468;48.276;14.416;2023-06-14T10:09:34;24.30;95.00
66610;DHT22;53468;48.276;14.416;2023-06-14T10:14:37;23.80;91.40
66610;DHT22;53468;48.276;14.416;2023-06-14T10:19:44;24.10;91.50
66610;DHT22;53468;48.276;14.416;2023-06-14T10:24:50;24.10;90.50
66610;DHT22;53468;48.276;14.416;2023-06-14T10:30:07;24.40;92.20
66610;DHT22;53468;48.276;14.416;2023-06-14T10:35:16;24.30;90.80
66610;DHT22;53468;48.276;14.416;2023-06-14T10:40:31;24.50;90.90
66610;DHT22;53468;48.276;14.416;2023-06-14T10:45:33;24.70;89.00
66610;DHT22;53468;48.276;14.416;2023-06-14T10:50:35;25.20;91.00
66610;DHT22;53468;48.276;14.416;2023-06-14T10:55:39;25.60;91.20
66610;DHT22;53468;48.276;14.416;2023-06-14T11:00:45;25.30;89.00
66610;DHT22;53468;48.276;14.416;2023-06-14T11:05:52;25.90;89.40
66610;DHT22;53468;48.276;14.416;2023-06-14T11:10:59;25.80;89.40
66610;DHT22;53468;48.276;14.416;2023-06-14T11:16:01;26.00;86.40
66610;DHT22;53468;48.276;14.416;2023-06-14T11:21:07;26.00;85.10
66610;DHT22;53468;48.276;14.416;2023-06-14T11:55:30;25.90;82.10
66610;DHT22;53468;48.276;14.416;2023-06-14T12:00:35;25.50;85.10
66610;DHT22;53468;48.276;14.416;2023-06-14T12:05:41;25.00;85.50
66610;DHT22;53468;48.276;14.416;2023-06-14T12:10:45;24.70;80.20
66610;DHT22;53468;48.276;14.416;2023-06-14T12:15:55;24.40;80.60
66610;DHT22;53468;48.276;14.416;2023-06-14T12:21:03;24.20;81.60
66610;DHT22;53468;48.276;14.416;2023-06-14T12:26:47;24.10;82.00
66610;DHT22;53468;48.276;14.416;2023-06-14T12:32:15;24.00;85.20
66610;DHT22;53468;48.276;14.416;2023-06-14T12:37:35;23.80;81.10
66610;DHT22;53468;48.276;14.416;2023-06-14T12:42:46;24.00;87.40
66610;DHT22;53468;48.276;14.416;2023-06-14T12:47:51;23.90;86.20
66610;DHT22;53468;48.276;14.416;2023-06-14T12:52:55;24.10;84.80
66610;DHT22;53468;48.276;14.416;2023-06-14T12:58:01;24.10;85.40
66610;DHT22;53468;48.276;14.416;2023-06-14T13:03:04;24.20;86.40
66610;DHT22;53468;48.276;14.416;2023-06-14T13:08:08;24.10;87.90
66610;DHT22;53468;48.276;14.416;2023-06-14T13:13:17;24.10;88.50
66610;DHT22;53468;48.276;14.416;2023-06-14T13:18:26;24.10;86.90
66610;DHT22;53468;48.276;14.416;2023-06-14T13:23:33;24.30;90.00
66610;DHT22;53468;48.276;14.416;2023-06-14T13:46:29;24.10;85.90
66610;DHT22;53468;48.276;14.416;2023-06-14T13:51:49;24.20;88.40
66610;DHT22;53468;48.276;14.416;2023-06-14T13:57:34;24.20;86.60
66610;DHT22;53468;48.276;14.416;2023-06-14T14:14:59;24.50;83.40
66610;DHT22;53468;48.276;14.416;2023-06-14T14:20:27;24.80;82.00
66610;DHT22;53468;48.276;14.416;2023-06-14T14:26:06;25.40;79.30
66610;DHT22;53468;48.276;14.416;2023-06-14T14:31:31;25.70;79.10
66610;DHT22;53468;48.276;14.416;2023-06-14T14:37:00;25.30;74.50
66610;DHT22;53468;48.276;14.416;2023-06-14T14:42:56;24.90;77.50
66610;DHT22;53468;48.276;14.416;2023-06-14T14:48:55;24.70;80.20
66610;DHT22;53468;48.276;14.416;2023-06-14T14:54:26;24.60;79.60
66610;DHT22;53468;48.276;14.416;2023-06-14T14:59:55;24.60;76.80
66610;DHT22;53468;48.276;14.416;2023-06-14T15:34:08;24.80;81.40
66610;DHT22;53468;48.276;14.416;2023-06-14T15:39:12;24.60;76.30
66610;DHT22;53468;48.276;14.416;2023-06-14T15:44:15;24.50;81.30
66610;DHT22;53468;48.276;14.416;2023-06-14T15:49:21;24.50;78.20
66610;DHT22;53468;48.276;14.416;2023-06-14T15:54:24;24.50;77.70
66610;DHT22;53468;48.276;14.416;2023-06-14T15:59:26;24.50;77.30
66610;DHT22;53468;48.276;14.416;2023-06-14T16:04:59;24.50;76.00
66610;DHT22;53468;48.276;14.416;2023-06-14T16:10:01;24.70;74.50
66610;DHT22;53468;48.276;14.416;2023-06-14T16:15:06;24.80;76.10
66610;DHT22;53468;48.276;14.416;2023-06-14T16:20:15;24.90;75.90
66610;DHT22;53468;48.276;14.416;2023-06-14T16:25:26;25.00;76.00
66610;DHT22;53468;48.276;14.416;2023-06-14T16:30:29;25.00;76.80
66610;DHT22;53468;48.276;14.416;2023-06-14T16:41:23;24.50;77.30
66610;DHT22;53468;48.276;14.416;2023-06-14T16:46:29;24.10;78.20
66610;DHT22;53468;48.276;14.416;2023-06-14T16:51:32;23.70;80.70
66610;DHT22;53468;48.276;14.416;2023-06-14T16:56:36;23.50;81.30
66610;DHT22;53468;48.276;14.416;2023-06-14T17:01:39;23.20;83.00
66610;DHT22;53468;48.276;14.416;2023-06-14T17:06:42;23.00;83.50
66610;DHT22;53468;48.276;14.416;2023-06-14T17:11:46;22.90;83.40
66610;DHT22;53468;48.276;14.416;2023-06-14T17:16:49;22.80;84.20
66610;DHT22;53468;48.276;14.416;2023-06-14T17:22:25;22.80;84.40
66610;DHT22;53468;48.276;14.416;2023-06-14T17:51:30;22.20;89.60
66610;DHT22;53468;48.276;14.416;2023-06-14T17:57:30;22.10;88.40
66610;DHT22;53468;48.276;14.416;2023-06-14T18:03:14;21.90;89.10
